sensor_id;sensor_type;location;lat;lon;timestamp;pressure;altitude;pressure_sealevel;temperature;humidity
56807;BME280;42687;42.524;12.052;2022-11-06T00:01:13;96340.59;;;8.09;77.09
56807;BME280;42687;42.524;12.052;2022-11-06T00:03:39;96335.38;;;8.09;77.01
56807;BME280;42687;42.524;12.052;2022-11-06T00:06:08;96340.44;;;8.12;77.11
56807;BME280;42687;42.524;12.052;2022-11-06T00:08:53;96347.38;;;8.13;76.98
56807;BME280;42687;42.524;12.052;2022-11-06T00:11:19;96339.25;;;8.18;76.78
56807;BME280;42687;42.524;12.052;2022-11-06T00:13:45;96352.94;;;8.23;76.81
56807;BME280;42687;42.524;12.052;2022-11-06T00:16:12;96348.72;;;8.21;76.88
56807;BME280;42687;42.524;12.052;2022-11-06T00:18:38;96340.09;;;8.18;77.25
56807;BME280;42687;42.524;12.052;2022-11-06T00:21:14;96348.06;;;8.17;77.18
56807;BME280;42687;42.524;12.052;2022-11-06T00:23:40;96337.47;;;8.18;77.30
56807;BME280;42687;42.524;12.052;2022-11-06T00:26:10;96353.94;;;8.21;77.09
56807;BME280;42687;42.524;12.052;2022-11-06T00:28:36;96350.41;;;8.22;77.01
56807;BME280;42687;42.524;12.052;2022-11-06T00:31:03;96338.22;;;8.21;77.27
56807;BME280;42687;42.524;12.052;2022-11-06T00:33:29;96354.81;;;8.21;77.19
56807;BME280;42687;42.524;12.052;2022-11-06T00:35:54;96340.75;;;8.22;77.07
56807;BME280;42687;42.524;12.052;2022-11-06T00:38:20;96332.84;;;8.24;77.15
56807;BME280;42687;42.524;12.052;2022-11-06T00:40:45;96336.19;;;8.26;77.30
56807;BME280;42687;42.524;12.052;2022-11-06T00:43:11;96332.91;;;8.22;77.19
56807;BME280;42687;42.524;12.052;2022-11-06T00:45:36;96332.06;;;8.22;77.32
56807;BME280;42687;42.524;12.052;2022-11-06T00:48:02;96331.81;;;8.26;77.29
56807;BME280;42687;42.524;12.052;2022-11-06T00:50:27;96336.78;;;8.31;76.94
56807;BME280;42687;42.524;12.052;2022-11-06T00:52:53;96340.19;;;8.33;77.16
56807;BME280;42687;42.524;12.052;2022-11-06T00:55:19;96335.88;;;8.32;77.21
56807;BME280;42687;42.524;12.052;2022-11-06T00:57:45;96329.84;;;8.30;76.82
56807;BME280;42687;42.524;12.052;2022-11-06T01:00:10;96349.97;;;8.29;77.30
56807;BME280;42687;42.524;12.052;2022-11-06T01:02:36;96348.19;;;8.30;77.13
56807;BME280;42687;42.524;12.052;2022-11-06T01:05:02;96354.13;;;8.33;77.04
56807;BME280;42687;42.524;12.052;2022-11-06T01:07:27;96354.03;;;8.35;77.23
56807;BME280;42687;42.524;12.052;2022-11-06T01:09:53;96357.56;;;8.34;77.21
56807;BME280;42687;42.524;12.052;2022-11-06T01:12:18;96368.31;;;8.29;77.27
56807;BME280;42687;42.524;12.052;2022-11-06T01:14:44;96365.88;;;8.26;77.51
56807;BME280;42687;42.524;12.052;2022-11-06T01:17:10;96377.44;;;8.22;77.58
56807;BME280;42687;42.524;12.052;2022-11-06T01:19:36;96382.84;;;8.19;78.18
56807;BME280;42687;42.524;12.052;2022-11-06T01:22:02;96389.19;;;8.15;78.04
56807;BME280;42687;42.524;12.052;2022-11-06T01:24:27;96396.34;;;8.11;78.55
56807;BME280;42687;42.524;12.052;2022-11-06T01:26:53;96401.69;;;8.10;78.17
56807;BME280;42687;42.524;12.052;2022-11-06T01:29:19;96390.38;;;8.09;78.47
56807;BME280;42687;42.524;12.052;2022-11-06T01:31:46;96398.22;;;8.09;78.96
56807;BME280;42687;42.524;12.052;2022-11-06T01:34:14;96395.69;;;8.08;78.48
56807;BME280;42687;42.524;12.052;2022-11-06T01:36:39;96405.56;;;8.02;78.54
56807;BME280;42687;42.524;12.052;2022-11-06T01:39:06;96394.50;;;7.97;79.19
56807;BME280;42687;42.524;12.052;2022-11-06T01:41:36;96407.66;;;7.96;79.11
56807;BME280;42687;42.524;12.052;2022-11-06T01:44:03;96418.16;;;7.96;79.77
56807;BME280;42687;42.524;12.052;2022-11-06T01:46:30;96414.75;;;7.94;79.02
56807;BME280;42687;42.524;12.052;2022-11-06T01:49:00;96411.31;;;7.93;79.36
56807;BME280;42687;42.524;12.052;2022-11-06T01:51:30;96416.69;;;7.90;78.67
56807;BME280;42687;42.524;12.052;2022-11-06T01:53:56;96411.38;;;7.92;78.84
56807;BME280;42687;42.524;12.052;2022-11-06T01:56:22;96412.03;;;7.95;78.78
56807;BME280;42687;42.524;12.052;2022-11-06T01:58:48;96415.44;;;7.97;78.77
56807;BME280;42687;42.524;12.052;2022-11-06T02:01:15;96409.19;;;8.00;78.97
56807;BME280;42687;42.524;12.052;2022-11-06T02:03:43;96410.53;;;8.07;78.80
56807;BME280;42687;42.524;12.052;2022-11-06T02:06:10;96405.81;;;8.14;78.45
56807;BME280;42687;42.524;12.052;2022-11-06T02:08:35;96406.19;;;8.24;78.07
56807;BME280;42687;42.524;12.052;2022-11-06T02:11:01;96417.91;;;8.32;77.95
56807;BME280;42687;42.524;12.052;2022-11-06T02:28:34;96407.72;;;8.44;77.54
56807;BME280;42687;42.524;12.052;2022-11-06T02:31:02;96419.31;;;8.56;77.67
56807;BME280;42687;42.524;12.052;2022-11-06T02:33:32;96424.28;;;8.60;77.78
56807;BME280;42687;42.524;12.052;2022-11-06T02:36:00;96411.69;;;8.67;77.33
56807;BME280;42687;42.524;12.052;2022-11-06T02:38:29;96414.22;;;8.68;77.36
56807;BME280;42687;42.524;12.052;2022-11-06T02:40:58;96407.22;;;8.69;78.03
56807;BME280;42687;42.524;12.052;2022-11-06T02:43:27;96410.09;;;8.64;77.66
56807;BME280;42687;42.524;12.052;2022-11-06T02:45:57;96421.66;;;8.60;78.04
56807;BME280;42687;42.524;12.052;2022-11-06T02:48:26;96404.59;;;8.53;77.16
56807;BME280;42687;42.524;12.052;2022-11-06T02:50:53;96405.88;;;8.46;77.39
56807;BME280;42687;42.524;12.052;2022-11-06T02:53:21;96395.72;;;8.40;77.30
56807;BME280;42687;42.524;12.052;2022-11-06T02:55:49;96410.66;;;8.38;77.05
56807;BME280;42687;42.524;12.052;2022-11-06T02:58:37;96406.34;;;8.37;77.53
56807;BME280;42687;42.524;12.052;2022-11-06T03:01:21;96405.59;;;8.34;77.38
56807;BME280;42687;42.524;12.052;2022-11-06T03:03:50;96395.25;;;8.31;77.47
56807;BME280;42687;42.524;12.052;2022-11-06T03:06:37;96395.44;;;8.28;77.70
56807;BME280;42687;42.524;12.052;2022-11-06T03:09:08;96398.06;;;8.28;77.73
56807;BME280;42687;42.524;12.052;2022-11-06T03:11:35;96401.59;;;8.27;77.61
56807;BME280;42687;42.524;12.052;2022-11-06T03:14:08;96403.38;;;8.27;77.81
56807;BME280;42687;42.524;12.052;2022-11-06T03:16:41;96409.38;;;8.29;77.47
56807;BME280;42687;42.524;12.052;2022-11-06T03:19:15;96404.22;;;8.27;77.29
56807;BME280;42687;42.524;12.052;2022-11-06T03:21:52;96418.00;;;8.31;77.35
56807;BME280;42687;42.524;12.052;2022-11-06T03:24:20;96397.81;;;8.17;77.32
56807;BME280;42687;42.524;12.052;2022-11-06T03:26:50;96429.41;;;8.30;77.37
56807;BME280;42687;42.524;12.052;2022-11-06T03:29:26;96435.25;;;8.35;77.44
56807;BME280;42687;42.524;12.052;2022-11-06T03:31:57;96449.13;;;8.37;77.24
56807;BME280;42687;42.524;12.052;2022-11-06T03:34:28;96443.09;;;8.35;77.39
56807;BME280;42687;42.524;12.052;2022-11-06T03:36:56;96444.97;;;8.33;77.59
56807;BME280;42687;42.524;12.052;2022-11-06T03:39:29;96432.22;;;8.27;77.51
56807;BME280;42687;42.524;12.052;2022-11-06T03:42:09;96444.69;;;8.22;77.94
56807;BME280;42687;42.524;12.052;2022-11-06T03:44:38;96439.56;;;8.20;78.11
56807;BME280;42687;42.524;12.052;2022-11-06T03:49:50;96418.78;;;8.17;77.91
56807;BME280;42687;42.524;12.052;2022-11-06T03:52:20;96414.59;;;8.13;78.03
56807;BME280;42687;42.524;12.052;2022-11-06T03:54:51;96418.31;;;8.09;78.30
56807;BME280;42687;42.524;12.052;2022-11-06T03:57:20;96414.78;;;8.10;78.53
56807;BME280;42687;42.524;12.052;2022-11-06T03:59:49;96408.78;;;8.08;78.36
56807;BME280;42687;42.524;12.052;2022-11-06T04:02:16;96425.44;;;8.07;78.51
56807;BME280;42687;42.524;12.052;2022-11-06T04:04:46;96426.44;;;8.04;78.45
56807;BME280;42687;42.524;12.052;2022-11-06T04:07:22;96444.84;;;8.02;78.18
56807;BME280;42687;42.524;12.052;2022-11-06T04:09:53;96444.00;;;8.02;78.63
56807;BME280;42687;42.524;12.052;2022-11-06T04:12:39;96438.09;;;7.98;78.51
56807;BME280;42687;42.524;12.052;2022-11-06T04:15:24;96445.44;;;7.92;78.59
56807;BME280;42687;42.524;12.052;2022-11-06T04:17:51;96438.56;;;7.89;78.93
56807;BME280;42687;42.524;12.052;2022-11-06T04:20:20;96441.41;;;7.84;78.92
56807;BME280;42687;42.524;12.052;2022-11-06T04:23:19;96443.44;;;7.79;79.05
56807;BME280;42687;42.524;12.052;2022-11-06T04:25:56;96374.16;;;7.35;78.93
56807;BME280;42687;42.524;12.052;2022-11-06T04:31:44;96439.88;;;7.80;78.85
56807;BME280;42687;42.524;12.052;2022-11-06T04:34:19;96449.34;;;7.83;78.90
56807;BME280;42687;42.524;12.052;2022-11-06T04:36:47;96444.81;;;7.87;78.37
56807;BME280;42687;42.524;12.052;2022-11-06T04:39:18;96434.34;;;7.87;78.77
56807;BME280;42687;42.524;12.052;2022-11-06T04:44:35;96441.03;;;7.92;78.72
56807;BME280;42687;42.524;12.052;2022-11-06T04:47:03;96429.47;;;7.96;78.61
56807;BME280;42687;42.524;12.052;2022-11-06T04:49:30;96437.22;;;7.98;78.31
56807;BME280;42687;42.524;12.052;2022-11-06T04:51:56;96438.91;;;7.99;79.14
56807;BME280;42687;42.524;12.052;2022-11-06T04:54:22;96433.41;;;8.04;78.34
56807;BME280;42687;42.524;12.052;2022-11-06T04:56:47;96415.59;;;7.94;78.22
56807;BME280;42687;42.524;12.052;2022-11-06T04:59:14;96434.63;;;8.14;78.64
56807;BME280;42687;42.524;12.052;2022-11-06T05:01:41;96452.81;;;8.17;78.31
56807;BME280;42687;42.524;12.052;2022-11-06T05:04:07;96454.56;;;8.16;78.17
56807;BME280;42687;42.524;12.052;2022-11-06T05:06:32;96457.03;;;8.19;78.31
56807;BME280;42687;42.524;12.052;2022-11-06T05:08:58;96469.38;;;8.17;78.18
56807;BME280;42687;42.524;12.052;2022-11-06T05:11:25;96460.81;;;8.14;78.31
56807;BME280;42687;42.524;12.052;2022-11-06T05:13:50;96464.72;;;8.07;78.25
56807;BME280;42687;42.524;12.052;2022-11-06T05:16:16;96398.50;;;7.71;78.37
56807;BME280;42687;42.524;12.052;2022-11-06T05:18:41;96429.63;;;7.76;78.51
56807;BME280;42687;42.524;12.052;2022-11-06T05:21:07;96475.00;;;8.10;78.56
56807;BME280;42687;42.524;12.052;2022-11-06T05:23:51;96489.91;;;8.09;78.35
56807;BME280;42687;42.524;12.052;2022-11-06T05:26:16;96478.81;;;8.04;78.54
56807;BME280;42687;42.524;12.052;2022-11-06T05:28:42;96482.44;;;8.01;78.29
56807;BME280;42687;42.524;12.052;2022-11-06T05:31:07;96486.88;;;7.99;78.41
56807;BME280;42687;42.524;12.052;2022-11-06T05:33:33;96486.22;;;7.96;78.41
56807;BME280;42687;42.524;12.052;2022-11-06T05:36:04;96484.53;;;7.95;78.29
56807;BME280;42687;42.524;12.052;2022-11-06T05:38:30;96489.59;;;7.98;78.33
56807;BME280;42687;42.524;12.052;2022-11-06T05:40:55;96479.13;;;7.98;78.28
56807;BME280;42687;42.524;12.052;2022-11-06T05:43:21;96475.91;;;7.93;78.43
56807;BME280;42687;42.524;12.052;2022-11-06T05:45:46;96477.06;;;7.87;78.38
56807;BME280;42687;42.524;12.052;2022-11-06T05:48:12;96488.53;;;7.84;78.38
56807;BME280;42687;42.524;12.052;2022-11-06T05:50:37;96492.06;;;7.83;78.20
56807;BME280;42687;42.524;12.052;2022-11-06T05:53:03;96484.63;;;7.76;78.53
56807;BME280;42687;42.524;12.052;2022-11-06T05:55:29;96494.88;;;7.80;78.19
56807;BME280;42687;42.524;12.052;2022-11-06T05:57:54;96495.78;;;7.79;78.42
56807;BME280;42687;42.524;12.052;2022-11-06T06:00:20;96496.69;;;7.78;77.94
56807;BME280;42687;42.524;12.052;2022-11-06T06:02:45;96501.94;;;7.78;78.30
56807;BME280;42687;42.524;12.052;2022-11-06T06:05:11;96503.63;;;7.79;77.78
56807;BME280;42687;42.524;12.052;2022-11-06T06:07:36;96496.69;;;7.78;77.64
56807;BME280;42687;42.524;12.052;2022-11-06T06:10:02;96493.25;;;7.78;77.55
56807;BME280;42687;42.524;12.052;2022-11-06T06:12:27;96499.19;;;7.81;78.00
56807;BME280;42687;42.524;12.052;2022-11-06T06:14:52;96508.56;;;7.85;77.17
56807;BME280;42687;42.524;12.052;2022-11-06T06:17:18;96510.25;;;7.87;77.29
56807;BME280;42687;42.524;12.052;2022-11-06T06:19:44;96512.63;;;7.91;77.65
56807;BME280;42687;42.524;12.052;2022-11-06T06:22:09;96517.78;;;7.93;77.97
56807;BME280;42687;42.524;12.052;2022-11-06T06:24:34;96529.78;;;7.97;77.82
56807;BME280;42687;42.524;12.052;2022-11-06T06:27:00;96528.31;;;8.09;77.33
56807;BME280;42687;42.524;12.052;2022-11-06T06:29:26;96532.31;;;8.16;77.70
56807;BME280;42687;42.524;12.052;2022-11-06T06:31:51;96532.84;;;8.23;76.75
56807;BME280;42687;42.524;12.052;2022-11-06T06:34:17;96529.75;;;8.32;77.52
56807;BME280;42687;42.524;12.052;2022-11-06T06:36:42;96526.47;;;8.44;77.40
56807;BME280;42687;42.524;12.052;2022-11-06T06:39:08;96519.66;;;8.58;76.72
56807;BME280;42687;42.524;12.052;2022-11-06T06:41:33;96518.00;;;8.89;76.55
56807;BME280;42687;42.524;12.052;2022-11-06T06:43:58;96530.72;;;9.27;77.43
56807;BME280;42687;42.524;12.052;2022-11-06T06:46:24;96534.91;;;9.61;76.71
56807;BME280;42687;42.524;12.052;2022-11-06T06:48:49;96514.81;;;9.91;74.35
56807;BME280;42687;42.524;12.052;2022-11-06T06:51:15;96530.91;;;10.15;76.44
56807;BME280;42687;42.524;12.052;2022-11-06T06:53:40;96552.06;;;10.42;76.09
56807;BME280;42687;42.524;12.052;2022-11-06T06:56:06;96547.09;;;10.52;78.48
56807;BME280;42687;42.524;12.052;2022-11-06T06:58:31;96559.38;;;10.51;76.78
56807;BME280;42687;42.524;12.052;2022-11-06T07:01:00;96566.91;;;10.58;77.09
56807;BME280;42687;42.524;12.052;2022-11-06T07:03:26;96560.81;;;10.57;79.48
56807;BME280;42687;42.524;12.052;2022-11-06T07:05:52;96584.16;;;10.91;79.54
56807;BME280;42687;42.524;12.052;2022-11-06T07:08:18;96580.94;;;11.14;79.50
56807;BME280;42687;42.524;12.052;2022-11-06T07:10:43;96577.00;;;11.49;76.99
56807;BME280;42687;42.524;12.052;2022-11-06T07:13:09;96580.75;;;11.72;73.51
56807;BME280;42687;42.524;12.052;2022-11-06T07:15:34;96576.88;;;11.91;77.50
56807;BME280;42687;42.524;12.052;2022-11-06T07:18:03;96572.34;;;12.07;76.11
56807;BME280;42687;42.524;12.052;2022-11-06T07:20:29;96569.06;;;12.29;76.49
56807;BME280;42687;42.524;12.052;2022-11-06T07:22:54;96543.34;;;12.33;76.09
56807;BME280;42687;42.524;12.052;2022-11-06T07:25:20;96571.91;;;12.65;75.34
56807;BME280;42687;42.524;12.052;2022-11-06T07:27:45;96569.81;;;12.70;73.57
56807;BME280;42687;42.524;12.052;2022-11-06T07:30:11;96572.97;;;12.75;73.60
56807;BME280;42687;42.524;12.052;2022-11-06T07:32:36;96577.59;;;12.84;74.06
56807;BME280;42687;42.524;12.052;2022-11-06T07:35:02;96576.72;;;12.97;72.07
56807;BME280;42687;42.524;12.052;2022-11-06T07:37:27;96580.75;;;13.02;70.01
56807;BME280;42687;42.524;12.052;2022-11-06T07:39:53;96575.53;;;13.14;74.20
56807;BME280;42687;42.524;12.052;2022-11-06T07:42:18;96578.84;;;13.29;74.67
56807;BME280;42687;42.524;12.052;2022-11-06T07:44:44;96575.91;;;13.46;72.47
56807;BME280;42687;42.524;12.052;2022-11-06T07:47:09;96580.38;;;13.57;72.47
56807;BME280;42687;42.524;12.052;2022-11-06T07:49:34;96582.00;;;13.71;71.08
56807;BME280;42687;42.524;12.052;2022-11-06T07:52:00;96583.41;;;13.88;72.21
56807;BME280;42687;42.524;12.052;2022-11-06T07:54:25;96581.66;;;14.00;71.97
56807;BME280;42687;42.524;12.052;2022-11-06T07:56:51;96585.44;;;14.20;70.98
56807;BME280;42687;42.524;12.052;2022-11-06T07:59:16;96592.44;;;14.32;68.04
56807;BME280;42687;42.524;12.052;2022-11-06T08:01:42;96592.81;;;14.39;70.80
56807;BME280;42687;42.524;12.052;2022-11-06T08:04:07;96580.91;;;14.45;70.94
56807;BME280;42687;42.524;12.052;2022-11-06T08:06:32;96561.66;;;14.43;69.52
56807;BME280;42687;42.524;12.052;2022-11-06T08:08:58;96597.84;;;14.78;70.64
56807;BME280;42687;42.524;12.052;2022-11-06T08:11:23;96602.41;;;14.98;66.94
56807;BME280;42687;42.524;12.052;2022-11-06T08:13:49;96607.00;;;14.96;69.52
56807;BME280;42687;42.524;12.052;2022-11-06T08:16:14;96600.75;;;14.97;67.90
56807;BME280;42687;42.524;12.052;2022-11-06T08:18:40;96609.50;;;14.98;68.45
56807;BME280;42687;42.524;12.052;2022-11-06T08:21:06;96603.97;;;14.78;68.47
56807;BME280;42687;42.524;12.052;2022-11-06T08:23:31;96612.50;;;14.82;69.16
56807;BME280;42687;42.524;12.052;2022-11-06T08:25:58;96603.25;;;14.99;67.66
56807;BME280;42687;42.524;12.052;2022-11-06T08:28:24;96603.97;;;15.01;67.70
56807;BME280;42687;42.524;12.052;2022-11-06T08:30:50;96603.00;;;15.02;63.64
56807;BME280;42687;42.524;12.052;2022-11-06T08:33:16;96599.28;;;15.16;67.31
56807;BME280;42687;42.524;12.052;2022-11-06T08:35:41;96598.25;;;15.40;66.44
56807;BME280;42687;42.524;12.052;2022-11-06T08:38:07;96601.56;;;15.32;59.00
56807;BME280;42687;42.524;12.052;2022-11-06T08:40:32;96600.59;;;15.22;65.31
56807;BME280;42687;42.524;12.052;2022-11-06T08:42:58;96596.03;;;15.01;56.63
56807;BME280;42687;42.524;12.052;2022-11-06T08:45:24;96608.31;;;15.02;65.78
56807;BME280;42687;42.524;12.052;2022-11-06T08:47:49;96615.88;;;14.95;60.12
56807;BME280;42687;42.524;12.052;2022-11-06T08:50:15;96602.03;;;14.92;65.05
56807;BME280;42687;42.524;12.052;2022-11-06T08:52:40;96608.53;;;15.10;64.27
56807;BME280;42687;42.524;12.052;2022-11-06T08:55:06;96627.44;;;15.17;64.05
56807;BME280;42687;42.524;12.052;2022-11-06T08:57:31;96623.69;;;15.20;63.18
56807;BME280;42687;42.524;12.052;2022-11-06T08:59:57;96639.81;;;15.39;64.06
56807;BME280;42687;42.524;12.052;2022-11-06T09:02:23;96641.09;;;15.67;62.58
56807;BME280;42687;42.524;12.052;2022-11-06T09:04:48;96642.66;;;15.81;62.40
56807;BME280;42687;42.524;12.052;2022-11-06T09:07:14;96638.53;;;15.89;61.46
56807;BME280;42687;42.524;12.052;2022-11-06T09:09:39;96642.72;;;16.03;62.86
56807;BME280;42687;42.524;12.052;2022-11-06T09:12:05;96647.97;;;16.14;62.27
56807;BME280;42687;42.524;12.052;2022-11-06T09:14:32;96645.28;;;16.25;61.99
56807;BME280;42687;42.524;12.052;2022-11-06T09:16:57;96637.91;;;16.29;61.97
56807;BME280;42687;42.524;12.052;2022-11-06T09:19:23;96638.56;;;16.21;59.00
56807;BME280;42687;42.524;12.052;2022-11-06T09:21:48;96642.44;;;16.17;61.76
56807;BME280;42687;42.524;12.052;2022-11-06T09:24:14;96639.44;;;16.10;57.12
56807;BME280;42687;42.524;12.052;2022-11-06T09:26:39;96629.72;;;15.99;61.20
56807;BME280;42687;42.524;12.052;2022-11-06T09:29:05;96634.44;;;15.96;61.54
56807;BME280;42687;42.524;12.052;2022-11-06T09:31:30;96638.38;;;16.01;61.00
56807;BME280;42687;42.524;12.052;2022-11-06T09:33:56;96639.91;;;16.15;60.54
56807;BME280;42687;42.524;12.052;2022-11-06T09:36:22;96629.72;;;16.21;59.56
56807;BME280;42687;42.524;12.052;2022-11-06T09:38:47;96648.44;;;16.19;60.47
56807;BME280;42687;42.524;12.052;2022-11-06T09:46:20;96643.81;;;16.75;59.00
56807;BME280;42687;42.524;12.052;2022-11-06T09:48:48;96640.78;;;16.58;58.71
56807;BME280;42687;42.524;12.052;2022-11-06T09:53:48;96636.38;;;16.68;58.84
56807;BME280;42687;42.524;12.052;2022-11-06T09:56:16;96628.44;;;16.90;57.40
56807;BME280;42687;42.524;12.052;2022-11-06T09:58:43;96625.94;;;16.77;57.38
56807;BME280;42687;42.524;12.052;2022-11-06T10:01:13;96617.47;;;16.62;57.68
56807;BME280;42687;42.524;12.052;2022-11-06T10:03:56;96622.47;;;16.34;53.34
56807;BME280;42687;42.524;12.052;2022-11-06T10:06:23;96617.16;;;16.34;57.96
56807;BME280;42687;42.524;12.052;2022-11-06T10:08:51;96620.38;;;16.38;57.64
56807;BME280;42687;42.524;12.052;2022-11-06T10:17:04;96635.09;;;16.09;54.83
56807;BME280;42687;42.524;12.052;2022-11-06T10:19:10;96634.34;;;16.18;56.67
56807;BME280;42687;42.524;12.052;2022-11-06T10:24:22;96643.41;;;16.16;56.57
56807;BME280;42687;42.524;12.052;2022-11-06T10:26:50;96643.59;;;16.24;56.95
56807;BME280;42687;42.524;12.052;2022-11-06T10:29:32;96634.75;;;16.56;56.39
56807;BME280;42687;42.524;12.052;2022-11-06T10:34:48;96638.59;;;16.63;55.43
56807;BME280;42687;42.524;12.052;2022-11-06T10:37:26;96639.81;;;16.59;55.87
56807;BME280;42687;42.524;12.052;2022-11-06T10:39:53;96626.53;;;16.80;53.14
56807;BME280;42687;42.524;12.052;2022-11-06T10:42:22;96633.44;;;16.72;53.73
56807;BME280;42687;42.524;12.052;2022-11-06T10:45:21;96637.63;;;16.43;55.48
56807;BME280;42687;42.524;12.052;2022-11-06T10:50:44;96638.28;;;16.24;53.63
56807;BME280;42687;42.524;12.052;2022-11-06T10:53:21;96636.94;;;16.09;52.87
56807;BME280;42687;42.524;12.052;2022-11-06T10:58:42;96623.22;;;16.25;55.36
56807;BME280;42687;42.524;12.052;2022-11-06T11:01:08;96614.16;;;16.06;54.33
56807;BME280;42687;42.524;12.052;2022-11-06T11:03:38;96620.78;;;16.00;55.59
56807;BME280;42687;42.524;12.052;2022-11-06T11:06:05;96561.22;;;15.61;52.28
56807;BME280;42687;42.524;12.052;2022-11-06T11:08:38;96622.53;;;16.11;55.00
56807;BME280;42687;42.524;12.052;2022-11-06T11:13:43;96607.63;;;16.31;52.37
56807;BME280;42687;42.524;12.052;2022-11-06T11:18:53;96604.13;;;16.31;54.19
56807;BME280;42687;42.524;12.052;2022-11-06T11:23:44;96610.72;;;16.15;53.76
56807;BME280;42687;42.524;12.052;2022-11-06T11:26:18;96604.09;;;16.10;54.04
56807;BME280;42687;42.524;12.052;2022-11-06T11:28:48;96614.09;;;15.74;54.39
56807;BME280;42687;42.524;12.052;2022-11-06T11:31:15;96613.69;;;15.46;54.89
56807;BME280;42687;42.524;12.052;2022-11-06T11:33:51;96603.75;;;15.04;56.59
56807;BME280;42687;42.524;12.052;2022-11-06T11:36:17;96618.47;;;14.50;58.00
56807;BME280;42687;42.524;12.052;2022-11-06T11:38:43;96613.63;;;14.08;58.16
56807;BME280;42687;42.524;12.052;2022-11-06T11:43:43;96626.31;;;13.67;59.09
56807;BME280;42687;42.524;12.052;2022-11-06T11:46:21;96628.78;;;13.58;59.10
56807;BME280;42687;42.524;12.052;2022-11-06T11:51:14;96627.56;;;13.38;58.87
56807;BME280;42687;42.524;12.052;2022-11-06T11:53:42;96621.03;;;13.30;58.94
56807;BME280;42687;42.524;12.052;2022-11-06T11:56:11;96626.63;;;13.26;58.99
56807;BME280;42687;42.524;12.052;2022-11-06T11:58:38;96622.09;;;13.28;58.96
56807;BME280;42687;42.524;12.052;2022-11-06T12:01:04;96592.78;;;13.07;59.14
56807;BME280;42687;42.524;12.052;2022-11-06T12:03:39;96634.84;;;13.34;59.14
56807;BME280;42687;42.524;12.052;2022-11-06T12:06:12;96631.16;;;13.37;59.04
56807;BME280;42687;42.524;12.052;2022-11-06T12:08:39;96637.38;;;13.35;59.05
56807;BME280;42687;42.524;12.052;2022-11-06T12:11:05;96641.72;;;13.37;59.17
56807;BME280;42687;42.524;12.052;2022-11-06T12:13:31;96639.09;;;13.37;58.94
56807;BME280;42687;42.524;12.052;2022-11-06T12:16:01;96638.25;;;13.36;59.14
56807;BME280;42687;42.524;12.052;2022-11-06T12:21:23;96627.16;;;13.44;58.99
56807;BME280;42687;42.524;12.052;2022-11-06T12:23:52;96620.91;;;13.45;58.82
56807;BME280;42687;42.524;12.052;2022-11-06T12:28:48;96605.28;;;13.42;59.04
56807;BME280;42687;42.524;12.052;2022-11-06T12:31:36;96609.16;;;13.49;59.09
56807;BME280;42687;42.524;12.052;2022-11-06T12:34:01;96617.59;;;13.54;58.93
56807;BME280;42687;42.524;12.052;2022-11-06T12:36:28;96613.16;;;13.55;59.29
56807;BME280;42687;42.524;12.052;2022-11-06T12:39:00;96597.75;;;13.48;59.14
56807;BME280;42687;42.524;12.052;2022-11-06T12:41:31;96599.66;;;13.46;59.19
56807;BME280;42687;42.524;12.052;2022-11-06T12:43:58;96579.25;;;13.48;59.41
56807;BME280;42687;42.524;12.052;2022-11-06T12:46:32;96591.63;;;13.48;59.40
56807;BME280;42687;42.524;12.052;2022-11-06T12:51:50;96591.63;;;13.48;59.24
56807;BME280;42687;42.524;12.052;2022-11-06T12:59:53;96576.78;;;13.58;59.25
56807;BME280;42687;42.524;12.052;2022-11-06T13:02:29;96578.97;;;13.64;60.19
56807;BME280;42687;42.524;12.052;2022-11-06T13:05:03;96525.22;;;13.28;59.42
56807;BME280;42687;42.524;12.052;2022-11-06T13:07:52;96588.28;;;13.70;59.43
56807;BME280;42687;42.524;12.052;2022-11-06T13:10:36;96603.53;;;13.78;59.18
56807;BME280;42687;42.524;12.052;2022-11-06T13:18:10;96621.75;;;13.70;59.51
56807;BME280;42687;42.524;12.052;2022-11-06T13:23:18;96618.72;;;13.63;59.90
56807;BME280;42687;42.524;12.052;2022-11-06T13:28:34;96637.22;;;13.63;59.64
56807;BME280;42687;42.524;12.052;2022-11-06T13:31:03;96641.78;;;13.61;59.77
56807;BME280;42687;42.524;12.052;2022-11-06T13:33:35;96629.63;;;13.58;60.07
56807;BME280;42687;42.524;12.052;2022-11-06T13:36:02;96639.84;;;13.63;59.96
56807;BME280;42687;42.524;12.052;2022-11-06T13:38:29;96641.88;;;13.59;59.69
56807;BME280;42687;42.524;12.052;2022-11-06T13:40:59;96645.50;;;13.58;59.90
56807;BME280;42687;42.524;12.052;2022-11-06T13:45:57;96644.03;;;13.54;60.02
56807;BME280;42687;42.524;12.052;2022-11-06T13:51:28;96644.22;;;13.51;60.08
56807;BME280;42687;42.524;12.052;2022-11-06T13:56:31;96647.81;;;13.50;60.62
56807;BME280;42687;42.524;12.052;2022-11-06T13:59:09;96643.41;;;13.50;60.00
56807;BME280;42687;42.524;12.052;2022-11-06T14:06:31;96646.03;;;13.50;60.49
56807;BME280;42687;42.524;12.052;2022-11-06T14:09:04;96642.44;;;13.51;60.21
56807;BME280;42687;42.524;12.052;2022-11-06T14:11:34;96642.53;;;13.50;60.46
56807;BME280;42687;42.524;12.052;2022-11-06T14:16:27;96658.50;;;13.48;60.64
56807;BME280;42687;42.524;12.052;2022-11-06T14:18:54;96652.28;;;13.49;60.42
56807;BME280;42687;42.524;12.052;2022-11-06T14:24:15;96650.38;;;13.51;60.60
56807;BME280;42687;42.524;12.052;2022-11-06T14:26:47;96654.78;;;13.51;60.78
56807;BME280;42687;42.524;12.052;2022-11-06T14:31:57;96658.78;;;13.57;60.90
56807;BME280;42687;42.524;12.052;2022-11-06T14:34:31;96666.94;;;13.54;60.82
56807;BME280;42687;42.524;12.052;2022-11-06T14:36:57;96664.19;;;13.55;61.20
56807;BME280;42687;42.524;12.052;2022-11-06T14:42:07;96680.66;;;13.59;60.67
56807;BME280;42687;42.524;12.052;2022-11-06T14:44:37;96681.22;;;13.51;60.78
56807;BME280;42687;42.524;12.052;2022-11-06T14:47:05;96688.84;;;13.43;60.72
56807;BME280;42687;42.524;12.052;2022-11-06T14:49:36;96673.84;;;13.30;61.04